sensor_id;sensor_type;location;lat;lon;timestamp;pressure;altitude;pressure_sealevel;temperature;humidity
32033;BME280;31720;52.638;9.216;2023-03-16T00:00:17;101759.41;;;0.89;100.00
32033;BME280;31720;52.638;9.216;2023-03-16T00:03:19;101755.97;;;0.88;100.00
32033;BME280;31720;52.638;9.216;2023-03-16T00:06:22;101756.81;;;0.83;100.00
32033;BME280;31720;52.638;9.216;2023-03-16T00:09:23;101760.22;;;0.77;100.00
32033;BME280;31720;52.638;9.216;2023-03-16T00:12:30;101761.09;;;0.73;100.00
32033;BME280;31720;52.638;9.216;2023-03-16T00:15:33;101763.69;;;0.74;100.00
32033;BME280;31720;52.638;9.216;2023-03-16T00:18:35;101766.28;;;0.74;100.00
32033;BME280;31720;52.638;9.216;2023-03-16T00:21:39;101768.88;;;0.74;100.00
32033;BME280;31720;52.638;9.216;2023-03-16T00:24:41;101761.09;;;0.76;100.00
32033;BME280;31720;52.638;9.216;2023-03-16T00:27:43;101765.41;;;0.75;100.00
32033;BME280;31720;52.638;9.216;2023-03-16T00:30:44;101761.94;;;0.72;100.00
32033;BME280;31720;52.638;9.216;2023-03-16T00:33:46;101754.22;;;0.73;100.00
32033;BME280;31720;52.638;9.216;2023-03-16T00:36:49;101758.50;;;0.74;100.00
32033;BME280;31720;52.638;9.216;2023-03-16T00:39:51;101756.81;;;0.78;100.00
32033;BME280;31720;52.638;9.216;2023-03-16T00:42:55;101749.88;;;0.77;100.00
32033;BME280;31720;52.638;9.216;2023-03-16T00:45:57;101755.94;;;0.81;100.00
32033;BME280;31720;52.638;9.216;2023-03-16T00:49:00;101752.47;;;0.77;100.00
32033;BME280;31720;52.638;9.216;2023-03-16T00:52:06;101755.06;;;0.75;100.00
32033;BME280;31720;52.638;9.216;2023-03-16T00:55:08;101754.19;;;0.76;100.00
32033;BME280;31720;52.638;9.216;2023-03-16T00:58:09;101758.53;;;0.78;100.00
32033;BME280;31720;52.638;9.216;2023-03-16T01:01:18;101759.38;;;0.75;100.00
32033;BME280;31720;52.638;9.216;2023-03-16T01:04:21;101755.06;;;0.75;100.00
32033;BME280;31720;52.638;9.216;2023-03-16T01:07:24;101751.63;;;0.75;100.00
32033;BME280;31720;52.638;9.216;2023-03-16T01:10:25;101748.16;;;0.70;100.00
32033;BME280;31720;52.638;9.216;2023-03-16T01:13:27;101742.97;;;0.67;100.00
32033;BME280;31720;52.638;9.216;2023-03-16T01:16:28;101753.31;;;0.65;100.00
32033;BME280;31720;52.638;9.216;2023-03-16T01:19:33;101736.06;;;0.60;100.00
32033;BME280;31720;52.638;9.216;2023-03-16T01:22:36;101733.44;;;0.58;100.00
32033;BME280;31720;52.638;9.216;2023-03-16T01:25:37;101726.53;;;0.54;100.00
32033;BME280;31720;52.638;9.216;2023-03-16T01:28:40;101726.56;;;0.56;100.00
32033;BME280;31720;52.638;9.216;2023-03-16T01:31:43;101725.69;;;0.55;100.00
32033;BME280;31720;52.638;9.216;2023-03-16T01:34:44;101724.84;;;0.59;100.00
32033;BME280;31720;52.638;9.216;2023-03-16T01:37:47;101728.28;;;0.60;100.00
32033;BME280;31720;52.638;9.216;2023-03-16T01:40:50;101733.44;;;0.58;100.00
32033;BME280;31720;52.638;9.216;2023-03-16T01:43:53;101731.72;;;0.59;100.00
32033;BME280;31720;52.638;9.216;2023-03-16T01:46:57;101722.25;;;0.61;100.00
32033;BME280;31720;52.638;9.216;2023-03-16T01:49:58;101727.44;;;0.59;100.00
32033;BME280;31720;52.638;9.216;2023-03-16T01:53:01;101727.41;;;0.55;100.00
32033;BME280;31720;52.638;9.216;2023-03-16T01:56:05;101721.38;;;0.51;100.00
32033;BME280;31720;52.638;9.216;2023-03-16T01:59:11;101729.13;;;0.51;100.00
32033;BME280;31720;52.638;9.216;2023-03-16T02:02:17;101722.22;;;0.50;100.00
32033;BME280;31720;52.638;9.216;2023-03-16T02:05:22;101725.66;;;0.47;100.00
32033;BME280;31720;52.638;9.216;2023-03-16T02:08:26;101724.78;;;0.44;100.00
32033;BME280;31720;52.638;9.216;2023-03-16T02:11:28;101710.97;;;0.39;100.00
32033;BME280;31720;52.638;9.216;2023-03-16T02:14:30;101710.09;;;0.40;100.00
32033;BME280;31720;52.638;9.216;2023-03-16T02:17:33;101708.38;;;0.39;100.00
32033;BME280;31720;52.638;9.216;2023-03-16T02:20:41;101708.38;;;0.37;100.00
32033;BME280;31720;52.638;9.216;2023-03-16T02:23:46;101702.34;;;0.32;100.00
32033;BME280;31720;52.638;9.216;2023-03-16T02:26:52;101688.53;;;0.30;100.00
32033;BME280;31720;52.638;9.216;2023-03-16T02:30:05;101690.25;;;0.34;100.00
32033;BME280;31720;52.638;9.216;2023-03-16T02:33:08;101684.25;;;0.32;100.00
32033;BME280;31720;52.638;9.216;2023-03-16T02:36:11;101679.91;;;0.31;100.00
32033;BME280;31720;52.638;9.216;2023-03-16T02:39:14;101676.47;;;0.29;100.00
32033;BME280;31720;52.638;9.216;2023-03-16T02:42:17;101667.81;;;0.25;100.00
32033;BME280;31720;52.638;9.216;2023-03-16T02:45:23;101666.09;;;0.23;100.00
32033;BME280;31720;52.638;9.216;2023-03-16T02:48:29;101664.34;;;0.17;100.00
32033;BME280;31720;52.638;9.216;2023-03-16T02:51:33;101666.06;;;0.14;100.00
32033;BME280;31720;52.638;9.216;2023-03-16T02:54:34;101663.47;;;0.12;100.00
32033;BME280;31720;52.638;9.216;2023-03-16T02:57:36;101661.72;;;0.13;100.00
32033;BME280;31720;52.638;9.216;2023-03-16T03:00:38;101665.19;;;0.12;100.00
32033;BME280;31720;52.638;9.216;2023-03-16T03:03:41;101658.31;;;0.09;100.00
32033;BME280;31720;52.638;9.216;2023-03-16T03:06:43;101656.56;;;0.07;100.00
32033;BME280;31720;52.638;9.216;2023-03-16T03:09:44;101658.25;;;0.03;100.00
32033;BME280;31720;52.638;9.216;2023-03-16T03:12:45;101653.09;;;0.03;100.00
32033;BME280;31720;52.638;9.216;2023-03-16T03:15:49;101651.34;;;0.04;100.00
32033;BME280;31720;52.638;9.216;2023-03-16T03:18:51;101657.38;;;0.04;100.00
32033;BME280;31720;52.638;9.216;2023-03-16T03:21:53;101649.66;;;0.06;100.00
32033;BME280;31720;52.638;9.216;2023-03-16T03:24:55;101655.69;;;0.06;100.00
32033;BME280;31720;52.638;9.216;2023-03-16T03:27:58;101670.34;;;0.06;100.00
32033;BME280;31720;52.638;9.216;2023-03-16T03:31:01;101656.56;;;0.10;100.00
32033;BME280;31720;52.638;9.216;2023-03-16T03:34:02;101668.63;;;0.11;100.00
32033;BME280;31720;52.638;9.216;2023-03-16T03:37:05;101660.91;;;0.14;100.00
32033;BME280;31720;52.638;9.216;2023-03-16T03:40:09;101666.94;;;0.16;100.00
32033;BME280;31720;52.638;9.216;2023-03-16T03:43:11;101669.50;;;0.17;100.00
32033;BME280;31720;52.638;9.216;2023-03-16T03:46:13;101666.06;;;0.17;100.00
32033;BME280;31720;52.638;9.216;2023-03-16T03:49:15;101660.06;;;0.22;100.00
32033;BME280;31720;52.638;9.216;2023-03-16T03:52:16;101660.94;;;0.18;100.00
32033;BME280;31720;52.638;9.216;2023-03-16T03:55:17;101657.47;;;0.22;100.00
32033;BME280;31720;52.638;9.216;2023-03-16T03:58:19;101656.63;;;0.25;100.00
32033;BME280;31720;52.638;9.216;2023-03-16T04:01:21;101652.31;;;0.24;100.00
32033;BME280;31720;52.638;9.216;2023-03-16T04:04:23;101648.00;;;0.26;100.00
32033;BME280;31720;52.638;9.216;2023-03-16T04:07:24;101652.34;;;0.29;100.00
32033;BME280;31720;52.638;9.216;2023-03-16T04:10:27;101653.19;;;0.28;100.00
32033;BME280;31720;52.638;9.216;2023-03-16T04:13:29;101653.19;;;0.29;100.00
32033;BME280;31720;52.638;9.216;2023-03-16T04:16:31;101660.09;;;0.30;100.00
32033;BME280;31720;52.638;9.216;2023-03-16T04:19:33;101658.38;;;0.32;100.00
32033;BME280;31720;52.638;9.216;2023-03-16T04:22:34;101645.47;;;0.34;100.00
32033;BME280;31720;52.638;9.216;2023-03-16T04:25:36;101647.19;;;0.38;100.00
32033;BME280;31720;52.638;9.216;2023-03-16T04:28:38;101654.09;;;0.45;100.00
32033;BME280;31720;52.638;9.216;2023-03-16T04:31:41;101647.22;;;0.47;100.00
32033;BME280;31720;52.638;9.216;2023-03-16T04:34:43;101649.81;;;0.52;100.00
32033;BME280;31720;52.638;9.216;2023-03-16T04:37:46;101648.97;;;0.57;100.00
32033;BME280;31720;52.638;9.216;2023-03-16T04:40:48;101646.38;;;0.63;100.00
32033;BME280;31720;52.638;9.216;2023-03-16T04:43:49;101641.22;;;0.62;100.00
32033;BME280;31720;52.638;9.216;2023-03-16T04:46:52;101647.25;;;0.67;100.00
32033;BME280;31720;52.638;9.216;2023-03-16T04:49:53;101643.78;;;0.68;100.00
32033;BME280;31720;52.638;9.216;2023-03-16T04:52:54;101648.16;;;0.73;100.00
32033;BME280;31720;52.638;9.216;2023-03-16T04:55:56;101640.38;;;0.78;100.00
32033;BME280;31720;52.638;9.216;2023-03-16T04:58:57;101630.88;;;0.82;100.00
32033;BME280;31720;52.638;9.216;2023-03-16T05:02:00;101629.19;;;0.84;100.00
32033;BME280;31720;52.638;9.216;2023-03-16T05:05:03;101637.81;;;0.87;100.00
32033;BME280;31720;52.638;9.216;2023-03-16T05:08:05;101622.28;;;0.92;100.00
32033;BME280;31720;52.638;9.216;2023-03-16T05:11:07;101619.69;;;0.95;100.00
32033;BME280;31720;52.638;9.216;2023-03-16T05:14:08;101622.28;;;1.02;100.00
32033;BME280;31720;52.638;9.216;2023-03-16T05:17:11;101617.97;;;1.06;100.00
32033;BME280;31720;52.638;9.216;2023-03-16T05:20:14;101618.81;;;1.08;100.00
32033;BME280;31720;52.638;9.216;2023-03-16T05:23:15;101621.44;;;1.14;100.00
32033;BME280;31720;52.638;9.216;2023-03-16T05:26:17;101611.06;;;1.20;100.00
32033;BME280;31720;52.638;9.216;2023-03-16T05:29:18;101598.09;;;1.25;100.00
32033;BME280;31720;52.638;9.216;2023-03-16T05:32:21;101601.53;;;1.27;100.00
32033;BME280;31720;52.638;9.216;2023-03-16T05:35:23;101598.97;;;1.30;100.00
32033;BME280;31720;52.638;9.216;2023-03-16T05:38:24;101594.66;;;1.32;100.00
32033;BME280;31720;52.638;9.216;2023-03-16T05:41:27;101598.94;;;1.32;100.00
32033;BME280;31720;52.638;9.216;2023-03-16T05:44:28;101603.25;;;1.39;100.00
32033;BME280;31720;52.638;9.216;2023-03-16T05:47:31;101613.63;;;1.46;100.00
32033;BME280;31720;52.638;9.216;2023-03-16T05:50:32;101611.03;;;1.46;100.00
32033;BME280;31720;52.638;9.216;2023-03-16T05:53:34;101605.84;;;1.51;100.00
32033;BME280;31720;52.638;9.216;2023-03-16T05:56:35;101604.09;;;1.51;100.00
32033;BME280;31720;52.638;9.216;2023-03-16T05:59:36;101604.97;;;1.50;100.00
32033;BME280;31720;52.638;9.216;2023-03-16T06:02:40;101617.94;;;1.50;100.00
32033;BME280;31720;52.638;9.216;2023-03-16T06:05:41;101612.75;;;1.47;100.00
32033;BME280;31720;52.638;9.216;2023-03-16T06:08:42;101604.13;;;1.45;100.00
32033;BME280;31720;52.638;9.216;2023-03-16T06:11:44;101601.53;;;1.45;100.00
32033;BME280;31720;52.638;9.216;2023-03-16T06:14:45;101605.84;;;1.43;100.00
32033;BME280;31720;52.638;9.216;2023-03-16T06:17:48;101613.59;;;1.40;100.00
32033;BME280;31720;52.638;9.216;2023-03-16T06:20:49;101603.25;;;1.36;100.00
32033;BME280;31720;52.638;9.216;2023-03-16T06:23:51;101620.53;;;1.38;100.00
32033;BME280;31720;52.638;9.216;2023-03-16T06:26:52;101620.53;;;1.38;100.00
32033;BME280;31720;52.638;9.216;2023-03-16T06:29:54;101626.56;;;1.45;100.00
32033;BME280;31720;52.638;9.216;2023-03-16T06:32:56;101623.09;;;1.47;100.00
32033;BME280;31720;52.638;9.216;2023-03-16T06:35:59;101617.06;;;1.50;100.00
32033;BME280;31720;52.638;9.216;2023-03-16T06:39:00;101613.59;;;1.51;100.00
32033;BME280;31720;52.638;9.216;2023-03-16T06:42:02;101614.44;;;1.53;100.00
32033;BME280;31720;52.638;9.216;2023-03-16T06:45:05;101617.03;;;1.61;100.00
32033;BME280;31720;52.638;9.216;2023-03-16T06:48:08;101623.94;;;1.69;100.00
32033;BME280;31720;52.638;9.216;2023-03-16T06:51:10;101617.84;;;1.75;100.00
32033;BME280;31720;52.638;9.216;2023-03-16T06:54:11;101623.91;;;1.72;100.00
32033;BME280;31720;52.638;9.216;2023-03-16T06:57:13;101632.53;;;1.84;100.00
32033;BME280;31720;52.638;9.216;2023-03-16T07:00:15;101630.78;;;1.84;100.00
32033;BME280;31720;52.638;9.216;2023-03-16T07:03:18;101634.22;;;1.95;100.00
32033;BME280;31720;52.638;9.216;2023-03-16T07:06:19;101645.41;;;2.02;100.00
32033;BME280;31720;52.638;9.216;2023-03-16T07:09:20;101653.16;;;2.08;100.00
32033;BME280;31720;52.638;9.216;2023-03-16T07:12:22;101654.00;;;2.12;100.00
32033;BME280;31720;52.638;9.216;2023-03-16T07:15:23;101666.94;;;2.21;100.00
32033;BME280;31720;52.638;9.216;2023-03-16T07:18:27;101669.50;;;2.28;100.00
32033;BME280;31720;52.638;9.216;2023-03-16T07:21:29;101671.22;;;2.34;100.00
32033;BME280;31720;52.638;9.216;2023-03-16T07:24:38;101673.81;;;2.37;100.00
32033;BME280;31720;52.638;9.216;2023-03-16T07:27:39;101672.91;;;2.41;100.00
32033;BME280;31720;52.638;9.216;2023-03-16T07:30:43;101670.28;;;2.47;100.00
32033;BME280;31720;52.638;9.216;2023-03-16T07:33:46;101667.66;;;2.55;100.00
32033;BME280;31720;52.638;9.216;2023-03-16T07:36:47;101671.09;;;2.60;100.00
32033;BME280;31720;52.638;9.216;2023-03-16T07:39:51;101663.22;;;2.68;100.00
32033;BME280;31720;52.638;9.216;2023-03-16T07:42:53;101667.53;;;2.75;100.00
32033;BME280;31720;52.638;9.216;2023-03-16T07:45:54;101666.63;;;2.80;100.00
32033;BME280;31720;52.638;9.216;2023-03-16T07:48:57;101668.34;;;2.83;100.00
32033;BME280;31720;52.638;9.216;2023-03-16T07:51:58;101670.94;;;2.85;100.00
32033;BME280;31720;52.638;9.216;2023-03-16T07:55:00;101662.22;;;2.93;100.00
32033;BME280;31720;52.638;9.216;2023-03-16T07:58:02;101670.78;;;3.03;100.00
32033;BME280;31720;52.638;9.216;2023-03-16T08:01:04;101674.22;;;3.08;100.00
32033;BME280;31720;52.638;9.216;2023-03-16T08:04:08;101663.75;;;3.17;100.00
32033;BME280;31720;52.638;9.216;2023-03-16T08:07:12;101659.38;;;3.25;100.00
32033;BME280;31720;52.638;9.216;2023-03-16T08:10:14;101666.19;;;3.36;100.00
32033;BME280;31720;52.638;9.216;2023-03-16T08:13:15;101665.25;;;3.46;100.00
32033;BME280;31720;52.638;9.216;2023-03-16T08:16:17;101661.66;;;3.58;100.00
32033;BME280;31720;52.638;9.216;2023-03-16T08:19:19;101659.84;;;3.67;100.00
32033;BME280;31720;52.638;9.216;2023-03-16T08:22:21;101652.84;;;3.74;100.00
32033;BME280;31720;52.638;9.216;2023-03-16T08:25:22;101651.88;;;3.81;100.00
32033;BME280;31720;52.638;9.216;2023-03-16T08:28:24;101651.84;;;3.87;100.00
32033;BME280;31720;52.638;9.216;2023-03-16T08:31:25;101645.69;;;3.93;100.00
32033;BME280;31720;52.638;9.216;2023-03-16T08:34:28;101653.44;;;3.97;100.00
32033;BME280;31720;52.638;9.216;2023-03-16T08:37:30;101658.59;;;4.02;100.00
32033;BME280;31720;52.638;9.216;2023-03-16T08:40:31;101650.66;;;4.13;100.00
32033;BME280;31720;52.638;9.216;2023-03-16T08:43:34;101651.44;;;4.21;100.00
32033;BME280;31720;52.638;9.216;2023-03-16T08:46:36;101651.28;;;4.33;100.00
32033;BME280;31720;52.638;9.216;2023-03-16T08:49:39;101644.19;;;4.44;100.00
32033;BME280;31720;52.638;9.216;2023-03-16T08:52:41;101657.16;;;4.47;100.00
32033;BME280;31720;52.638;9.216;2023-03-16T08:55:43;101644.97;;;4.49;100.00
32033;BME280;31720;52.638;9.216;2023-03-16T08:58:45;101646.63;;;4.56;100.00
32033;BME280;31720;52.638;9.216;2023-03-16T09:01:46;101636.06;;;4.69;100.00
32033;BME280;31720;52.638;9.216;2023-03-16T09:04:49;101638.59;;;4.73;100.00
32033;BME280;31720;52.638;9.216;2023-03-16T09:07:51;101635.94;;;4.75;99.41
32033;BME280;31720;52.638;9.216;2023-03-16T09:10:58;101640.13;;;4.85;96.91
32033;BME280;31720;52.638;9.216;2023-03-16T09:13:59;101631.22;;;4.98;97.88
32033;BME280;31720;52.638;9.216;2023-03-16T09:17:00;101633.63;;;5.14;100.00
32033;BME280;31720;52.638;9.216;2023-03-16T09:20:04;101622.16;;;5.24;99.50
32033;BME280;31720;52.638;9.216;2023-03-16T09:23:08;101629.03;;;5.28;95.58
32033;BME280;31720;52.638;9.216;2023-03-16T09:26:10;101632.44;;;5.31;95.29
32033;BME280;31720;52.638;9.216;2023-03-16T09:29:12;101628.94;;;5.32;94.09
32033;BME280;31720;52.638;9.216;2023-03-16T09:32:14;101628.88;;;5.35;92.98
32033;BME280;31720;52.638;9.216;2023-03-16T09:35:17;101627.84;;;5.44;93.65
32033;BME280;31720;52.638;9.216;2023-03-16T09:38:18;101626.91;;;5.48;89.89
32033;BME280;31720;52.638;9.216;2023-03-16T09:41:31;101625.94;;;5.55;87.10
32033;BME280;31720;52.638;9.216;2023-03-16T09:44:42;101624.09;;;5.60;88.55
32033;BME280;31720;52.638;9.216;2023-03-16T09:47:55;101629.09;;;5.73;90.00
32033;BME280;31720;52.638;9.216;2023-03-16T09:50:59;101635.06;;;5.76;87.57
32033;BME280;31720;52.638;9.216;2023-03-16T09:54:07;101633.19;;;5.84;89.01
32033;BME280;31720;52.638;9.216;2023-03-16T09:57:18;101630.47;;;5.92;90.12
32033;BME280;31720;52.638;9.216;2023-03-16T10:00:26;101630.31;;;6.00;88.79
32033;BME280;31720;52.638;9.216;2023-03-16T10:03:38;101619.84;;;6.01;91.08
32033;BME280;31720;52.638;9.216;2023-03-16T10:06:56;101617.13;;;6.06;88.05
32033;BME280;31720;52.638;9.216;2023-03-16T10:10:05;101619.63;;;6.12;87.27
32033;BME280;31720;52.638;9.216;2023-03-16T10:13:22;101622.25;;;6.10;89.00
32033;BME280;31720;52.638;9.216;2023-03-16T10:16:32;101608.28;;;6.13;88.76
32033;BME280;31720;52.638;9.216;2023-03-16T10:19:38;101602.94;;;6.19;89.33
32033;BME280;31720;52.638;9.216;2023-03-16T10:22:44;101596.59;;;6.31;88.20
32033;BME280;31720;52.638;9.216;2023-03-16T10:25:47;101603.44;;;6.37;84.96
32033;BME280;31720;52.638;9.216;2023-03-16T10:28:49;101588.44;;;6.45;87.09
32033;BME280;31720;52.638;9.216;2023-03-16T10:31:53;101580.66;;;6.43;87.53
32033;BME280;31720;52.638;9.216;2023-03-16T10:34:59;101577.78;;;6.54;83.12
32033;BME280;31720;52.638;9.216;2023-03-16T10:38:06;101580.16;;;6.65;83.95
32033;BME280;31720;52.638;9.216;2023-03-16T10:41:19;101588.00;;;6.65;84.46
32033;BME280;31720;52.638;9.216;2023-03-16T10:44:23;101592.75;;;6.84;87.29
32033;BME280;31720;52.638;9.216;2023-03-16T10:47:29;101583.94;;;6.89;85.52
32033;BME280;31720;52.638;9.216;2023-03-16T10:50:31;101582.69;;;7.03;84.51
32033;BME280;31720;52.638;9.216;2023-03-16T10:53:37;101573.63;;;7.17;83.48
32033;BME280;31720;52.638;9.216;2023-03-16T10:56:41;101582.97;;;7.27;83.32
32033;BME280;31720;52.638;9.216;2023-03-16T10:59:48;101570.75;;;7.27;78.51
32033;BME280;31720;52.638;9.216;2023-03-16T11:02:51;101573.09;;;7.38;78.33
32033;BME280;31720;52.638;9.216;2023-03-16T11:05:58;101576.25;;;7.49;76.77
32033;BME280;31720;52.638;9.216;2023-03-16T11:09:05;101577.59;;;7.64;80.69
32033;BME280;31720;52.638;9.216;2023-03-16T11:12:18;101573.75;;;7.77;73.70
32033;BME280;31720;52.638;9.216;2023-03-16T11:15:21;101572.72;;;7.83;67.13
32033;BME280;31720;52.638;9.216;2023-03-16T11:18:28;101560.44;;;7.85;67.00
32033;BME280;31720;52.638;9.216;2023-03-16T11:21:38;101560.22;;;7.93;69.49
32033;BME280;31720;52.638;9.216;2023-03-16T11:24:49;101548.63;;;8.01;65.64
32033;BME280;31720;52.638;9.216;2023-03-16T11:28:04;101540.84;;;7.98;67.29
32033;BME280;31720;52.638;9.216;2023-03-16T11:31:18;101542.81;;;7.92;65.12
32033;BME280;31720;52.638;9.216;2023-03-16T11:34:26;101546.66;;;8.08;67.13
32033;BME280;31720;52.638;9.216;2023-03-16T11:37:37;101545.34;;;8.23;65.61
32033;BME280;31720;52.638;9.216;2023-03-16T11:40:52;101531.72;;;8.41;67.31
32033;BME280;31720;52.638;9.216;2023-03-16T11:43:59;101519.75;;;8.60;66.89
32033;BME280;31720;52.638;9.216;2023-03-16T11:47:23;101520.75;;;8.83;67.15
32033;BME280;31720;52.638;9.216;2023-03-16T11:50:36;101510.41;;;9.03;65.47
32033;BME280;31720;52.638;9.216;2023-03-16T11:53:54;101507.59;;;9.09;62.90
32033;BME280;31720;52.638;9.216;2023-03-16T11:57:06;101503.56;;;9.24;64.00
32033;BME280;31720;52.638;9.216;2023-03-16T12:00:20;101498.06;;;9.32;61.56
32033;BME280;31720;52.638;9.216;2023-03-16T12:03:56;101495.78;;;9.46;60.73
32033;BME280;31720;52.638;9.216;2023-03-16T12:07:11;101479.25;;;9.68;57.77
32033;BME280;31720;52.638;9.216;2023-03-16T12:10:21;101481.72;;;9.72;58.83
32033;BME280;31720;52.638;9.216;2023-03-16T12:13:29;101483.25;;;9.78;58.77
32033;BME280;31720;52.638;9.216;2023-03-16T12:16:38;101479.16;;;9.93;55.73
32033;BME280;31720;52.638;9.216;2023-03-16T12:19:45;101480.69;;;9.98;55.47
32033;BME280;31720;52.638;9.216;2023-03-16T12:22:51;101460.88;;;9.89;51.69
32033;BME280;31720;52.638;9.216;2023-03-16T12:25:55;101460.22;;;9.84;52.43
32033;BME280;31720;52.638;9.216;2023-03-16T12:29:03;101462.72;;;9.87;53.55
32033;BME280;31720;52.638;9.216;2023-03-16T12:32:10;101465.25;;;9.90;56.11
32033;BME280;31720;52.638;9.216;2023-03-16T12:35:26;101452.22;;;9.87;54.39
32033;BME280;31720;52.638;9.216;2023-03-16T12:38:42;101441.97;;;9.81;51.47
32033;BME280;31720;52.638;9.216;2023-03-16T12:41:57;101427.97;;;9.81;51.08
32033;BME280;31720;52.638;9.216;2023-03-16T12:45:09;101432.69;;;9.73;48.97
32033;BME280;31720;52.638;9.216;2023-03-16T12:48:17;101425.53;;;9.76;47.91
32033;BME280;31720;52.638;9.216;2023-03-16T12:51:31;101426.44;;;9.75;49.11
32033;BME280;31720;52.638;9.216;2023-03-16T12:54:32;101420.28;;;9.76;50.29
32033;BME280;31720;52.638;9.216;2023-03-16T12:57:34;101431.19;;;9.65;50.72
32033;BME280;31720;52.638;9.216;2023-03-16T13:00:38;101415.38;;;9.67;51.50
32033;BME280;31720;52.638;9.216;2023-03-16T13:03:41;101417.84;;;9.72;51.05
32033;BME280;31720;52.638;9.216;2023-03-16T13:06:45;101412.91;;;9.64;51.13
32033;BME280;31720;52.638;9.216;2023-03-16T13:09:51;101397.09;;;9.65;51.90
32033;BME280;31720;52.638;9.216;2023-03-16T13:12:54;101390.44;;;9.79;49.67
32033;BME280;31720;52.638;9.216;2023-03-16T13:16:04;101403.28;;;9.86;54.16
32033;BME280;31720;52.638;9.216;2023-03-16T13:19:26;101394.19;;;9.73;46.92
32033;BME280;31720;52.638;9.216;2023-03-16T13:22:30;101391.84;;;9.65;49.87
32033;BME280;31720;52.638;9.216;2023-03-16T13:25:40;101391.00;;;9.65;49.63
32033;BME280;31720;52.638;9.216;2023-03-16T13:28:48;101392.13;;;9.58;48.64
32033;BME280;31720;52.638;9.216;2023-03-16T13:31:52;101391.47;;;9.53;49.06
32033;BME280;31720;52.638;9.216;2023-03-16T13:34:57;101385.84;;;9.62;52.83
32033;BME280;31720;52.638;9.216;2023-03-16T13:38:02;101379.16;;;9.55;49.83
32033;BME280;31720;52.638;9.216;2023-03-16T13:41:09;101383.59;;;9.53;49.50
32033;BME280;31720;52.638;9.216;2023-03-16T13:44:13;101374.88;;;9.52;49.00
32033;BME280;31720;52.638;9.216;2023-03-16T13:47:17;101370.16;;;9.38;45.82
32033;BME280;31720;52.638;9.216;2023-03-16T13:50:19;101365.16;;;9.32;45.98
32033;BME280;31720;52.638;9.216;2023-03-16T13:53:22;101364.50;;;9.26;45.49
32033;BME280;31720;52.638;9.216;2023-03-16T13:56:25;101364.34;;;9.30;46.39
32033;BME280;31720;52.638;9.216;2023-03-16T13:59:28;101359.25;;;9.26;48.74
32033;BME280;31720;52.638;9.216;2023-03-16T14:02:35;101351.22;;;9.30;49.17
32033;BME280;31720;52.638;9.216;2023-03-16T14:05:41;101350.69;;;9.22;47.66
32033;BME280;31720;52.638;9.216;2023-03-16T14:08:45;101349.81;;;9.22;46.67
32033;BME280;31720;52.638;9.216;2023-03-16T14:11:48;101350.22;;;9.11;46.26
32033;BME280;31720;52.638;9.216;2023-03-16T14:14:53;101332.72;;;9.11;46.79
32033;BME280;31720;52.638;9.216;2023-03-16T14:18:12;101319.91;;;9.04;47.25
32033;BME280;31720;52.638;9.216;2023-03-16T14:21:16;101314.53;;;9.07;49.22
32033;BME280;31720;52.638;9.216;2023-03-16T14:24:25;101308.19;;;9.12;50.25
32033;BME280;31720;52.638;9.216;2023-03-16T14:27:31;101298.44;;;9.16;52.48
32033;BME280;31720;52.638;9.216;2023-03-16T14:30:49;101295.66;;;9.21;53.46
32033;BME280;31720;52.638;9.216;2023-03-16T14:34:01;101288.53;;;9.24;51.73
32033;BME280;31720;52.638;9.216;2023-03-16T14:37:07;101296.13;;;9.30;52.29
32033;BME280;31720;52.638;9.216;2023-03-16T14:40:21;101283.84;;;9.32;51.34
32033;BME280;31720;52.638;9.216;2023-03-16T14:43:27;101269.91;;;9.30;50.33
32033;BME280;31720;52.638;9.216;2023-03-16T14:46:31;101266.22;;;9.36;49.56
32033;BME280;31720;52.638;9.216;2023-03-16T14:49:36;101265.34;;;9.35;47.92
32033;BME280;31720;52.638;9.216;2023-03-16T14:52:38;101273.22;;;9.35;50.59
32033;BME280;31720;52.638;9.216;2023-03-16T14:55:39;101269.69;;;9.36;49.25
32033;BME280;31720;52.638;9.216;2023-03-16T14:58:42;101267.66;;;9.43;48.83
32033;BME280;31720;52.638;9.216;2023-03-16T15:01:44;101256.19;;;9.46;49.91
32033;BME280;31720;52.638;9.216;2023-03-16T15:04:48;101247.34;;;9.48;48.97
32033;BME280;31720;52.638;9.216;2023-03-16T15:07:52;101247.41;;;9.47;50.39
32033;BME280;31720;52.638;9.216;2023-03-16T15:10:56;101244.13;;;9.42;50.12
32033;BME280;31720;52.638;9.216;2023-03-16T15:13:59;101242.53;;;9.37;49.73
32033;BME280;31720;52.638;9.216;2023-03-16T15:17:13;101230.19;;;9.39;51.94
32033;BME280;31720;52.638;9.216;2023-03-16T15:20:18;101213.56;;;9.40;51.96
32033;BME280;31720;52.638;9.216;2023-03-16T15:23:21;101210.03;;;9.42;52.78
32033;BME280;31720;52.638;9.216;2023-03-16T15:26:25;101219.59;;;9.43;54.11
32033;BME280;31720;52.638;9.216;2023-03-16T15:29:27;101226.34;;;9.48;56.07
32033;BME280;31720;52.638;9.216;2023-03-16T15:32:29;101230.66;;;9.49;56.62
32033;BME280;31720;52.638;9.216;2023-03-16T15:35:31;101211.47;;;9.49;57.46
32033;BME280;31720;52.638;9.216;2023-03-16T15:38:34;101222.28;;;9.41;56.84
32033;BME280;31720;52.638;9.216;2023-03-16T15:41:38;101207.31;;;9.23;55.76
32033;BME280;31720;52.638;9.216;2023-03-16T15:44:42;101201.38;;;9.18;58.49
32033;BME280;31720;52.638;9.216;2023-03-16T15:47:45;101204.13;;;9.14;57.47
32033;BME280;31720;52.638;9.216;2023-03-16T15:50:52;101201.75;;;9.08;58.58
32033;BME280;31720;52.638;9.216;2023-03-16T15:53:55;101194.19;;;9.01;56.53
32033;BME280;31720;52.638;9.216;2023-03-16T15:56:58;101192.66;;;8.95;57.15
32033;BME280;31720;52.638;9.216;2023-03-16T16:00:00;101194.66;;;8.88;57.81
32033;BME280;31720;52.638;9.216;2023-03-16T16:03:02;101185.09;;;8.87;56.66
32033;BME280;31720;52.638;9.216;2023-03-16T16:06:09;101177.41;;;8.83;57.94
32033;BME280;31720;52.638;9.216;2023-03-16T16:09:12;101178.53;;;8.77;57.78